Terminal Aerodrome Forecast
Issued by NWS Rapid City, SD

Home | Current Version | Previous Version | Graphics & Text | Print | Product List | Glossary On
Versions: 1 2 3 4 5 6 7 8 9 10 11 12 13 14 15 16 17 18 19 20 21 22 23 24 25 26 27 28 29 30
434
FTUS43 KUNR 262032 AAA
TAFRAP
TAF AMD
KRAP 262032Z 2621/2718 35015KT P6SM -RA BKN010
     FM262200 36012KT P6SM BKN015
     FM270100 04007KT P6SM BKN100=

USA.gov is the U.S. government's official web portal to all federal, state and local government web resources and services.